createdAt,value
2022-10-05T00:02:43.202Z,100.00
2022-10-05T00:05:46.403Z,100.00
2022-10-05T00:08:49.086Z,100.00
2022-10-05T00:11:52.422Z,100.00
2022-10-05T00:15:01.009Z,100.00
2022-10-05T00:18:13.233Z,100.00
2022-10-05T00:21:25.555Z,100.00
2022-10-05T00:24:29.866Z,100.00
2022-10-05T00:27:36.706Z,100.00
2022-10-05T00:30:39.948Z,100.00
2022-10-05T00:33:42.598Z,100.00
2022-10-05T00:36:46.068Z,100.00
2022-10-05T00:39:49.768Z,100.00
2022-10-05T00:43:25.595Z,100.00
2022-10-05T00:46:54.574Z,100.00
2022-10-05T00:50:06.293Z,100.00
2022-10-05T00:53:18.409Z,100.00
2022-10-05T00:56:37.454Z,100.00
2022-10-05T01:00:07.218Z,100.00
2022-10-05T01:03:44.104Z,100.00
2022-10-05T01:07:11.284Z,100.00
2022-10-05T01:10:29.487Z,100.00
2022-10-05T01:14:09.334Z,100.00
2022-10-05T01:17:29.962Z,100.00
2022-10-05T01:20:39.619Z,100.00
2022-10-05T01:23:54.618Z,100.00
2022-10-05T01:27:09.498Z,100.00
2022-10-05T01:30:16.362Z,100.00
2022-10-05T01:33:20.999Z,100.00
2022-10-05T01:36:53.399Z,100.00
2022-10-05T01:40:39.012Z,100.00
2022-10-05T01:43:56.837Z,100.00
2022-10-05T01:47:10.445Z,100.00
2022-10-05T01:50:42.003Z,100.00
2022-10-05T01:54:19.899Z,100.00
2022-10-05T01:58:01.345Z,100.00
2022-10-05T02:01:15.510Z,100.00
2022-10-05T02:05:00.361Z,100.00
2022-10-05T02:08:08.370Z,100.00
2022-10-05T02:11:14.914Z,100.00
2022-10-05T02:14:23.022Z,100.00
2022-10-05T02:17:38.814Z,100.00
2022-10-05T02:20:43.489Z,100.00
2022-10-05T02:23:50.531Z,100.00
2022-10-05T02:26:55.585Z,100.00
2022-10-05T02:30:03.809Z,100.00
2022-10-05T02:33:29.965Z,100.00
2022-10-05T02:36:36.405Z,100.00
2022-10-05T02:39:42.355Z,100.00
2022-10-05T02:43:04.503Z,100.00
2022-10-05T02:46:28.960Z,100.00
2022-10-05T02:49:50.562Z,100.00
2022-10-05T02:53:06.828Z,100.00
2022-10-05T02:56:27.166Z,100.00
2022-10-05T02:59:35.907Z,100.00
2022-10-05T03:03:18.965Z,100.00
2022-10-05T03:06:27.367Z,100.00
2022-10-05T03:09:37.415Z,100.00
2022-10-05T03:13:17.303Z,100.00
2022-10-05T03:16:36.158Z,100.00
2022-10-05T03:19:45.397Z,100.00
2022-10-05T03:22:56.036Z,100.00
2022-10-05T03:26:14.566Z,100.00
2022-10-05T03:29:44.631Z,100.00
2022-10-05T03:32:55.326Z,100.00
2022-10-05T03:36:19.682Z,100.00
2022-10-05T03:39:37.539Z,100.00
2022-10-05T03:43:21.106Z,100.00
2022-10-05T03:47:01.543Z,100.00
2022-10-05T03:50:30.879Z,100.00
2022-10-05T03:54:03.833Z,100.00
2022-10-05T03:57:12.354Z,100.00
2022-10-05T04:00:19.941Z,100.00
2022-10-05T04:03:29.221Z,100.00
2022-10-05T04:06:47.730Z,100.00
2022-10-05T04:09:53.257Z,100.00
2022-10-05T04:13:34.000Z,100.00
2022-10-05T04:16:47.322Z,100.00
2022-10-05T04:20:29.112Z,100.00
2022-10-05T04:23:55.237Z,100.00
2022-10-05T04:27:03.341Z,100.00
2022-10-05T04:30:14.016Z,100.00
2022-10-05T04:33:17.438Z,100.00
2022-10-05T04:36:36.358Z,100.00
2022-10-05T04:39:49.725Z,100.00
2022-10-05T04:42:59.061Z,100.00
2022-10-05T04:46:17.430Z,100.00
2022-10-05T04:49:49.607Z,100.00
2022-10-05T04:53:16.766Z,100.00
2022-10-05T04:56:33.881Z,100.00
2022-10-05T05:00:08.742Z,100.00
2022-10-05T05:03:19.590Z,100.00
2022-10-05T05:06:50.686Z,100.00
2022-10-05T05:09:57.381Z,100.00
2022-10-05T05:13:19.797Z,100.00
2022-10-05T05:16:31.975Z,100.00
2022-10-05T05:20:01.874Z,100.00
2022-10-05T05:23:04.948Z,100.00
2022-10-05T05:26:17.085Z,100.00
2022-10-05T05:30:02.479Z,100.00
2022-10-05T05:33:15.930Z,100.00
2022-10-05T05:36:39.779Z,100.00
2022-10-05T05:40:12.400Z,100.00
2022-10-05T05:43:55.464Z,100.00
2022-10-05T05:47:05.064Z,100.00
2022-10-05T05:50:33.807Z,100.00
2022-10-05T05:54:15.688Z,100.00
2022-10-05T05:57:28.215Z,100.00
2022-10-05T06:01:00.496Z,100.00
2022-10-05T06:04:53.012Z,100.00
2022-10-05T06:08:00.523Z,100.00
2022-10-05T06:11:18.547Z,100.00
2022-10-05T06:14:37.750Z,100.00
2022-10-05T06:17:48.375Z,100.00
2022-10-05T06:21:03.810Z,100.00
2022-10-05T06:24:19.195Z,100.00
2022-10-05T06:27:34.305Z,100.00
2022-10-05T06:30:54.453Z,100.00
2022-10-05T06:34:40.144Z,100.00
2022-10-05T09:40:01.547Z,75.74
2022-10-05T09:43:44.235Z,71.54
2022-10-05T09:47:01.837Z,69.20
2022-10-05T09:50:31.133Z,67.50
2022-10-05T09:54:12.887Z,68.91
2022-10-05T09:57:28.305Z,69.80
2022-10-05T10:01:29.300Z,67.13
2022-10-05T10:05:04.236Z,64.14
2022-10-05T10:08:38.086Z,62.38
2022-10-05T10:12:03.156Z,64.09
2022-10-05T10:15:24.078Z,65.10
2022-10-05T10:18:52.543Z,68.13
2022-10-05T10:22:17.329Z,69.45
2022-10-05T10:25:56.652Z,66.10
2022-10-05T10:29:31.269Z,66.97
2022-10-05T10:32:40.625Z,65.76
2022-10-05T10:36:00.497Z,67.31
2022-10-05T10:39:34.330Z,67.40
2022-10-05T10:43:02.176Z,63.97
2022-10-05T10:46:53.955Z,65.99
2022-10-05T10:50:18.864Z,62.66
2022-10-05T10:54:02.640Z,64.42
2022-10-05T10:57:38.147Z,65.57
2022-10-05T11:01:27.087Z,66.82
2022-10-05T11:04:49.554Z,65.40
2022-10-05T11:08:10.609Z,64.52
2022-10-05T11:11:36.362Z,66.46
2022-10-05T11:15:14.876Z,62.21
2022-10-05T11:18:30.750Z,64.41
2022-10-05T11:21:55.516Z,63.78
2022-10-05T11:25:22.893Z,62.77
2022-10-05T11:28:40.661Z,62.33
2022-10-05T11:32:06.078Z,63.60
2022-10-05T11:35:19.194Z,64.22
2022-10-05T11:38:43.108Z,61.24
2022-10-05T11:42:21.464Z,64.11
2022-10-05T11:45:31.870Z,62.41
2022-10-05T11:48:44.029Z,63.59
2022-10-05T11:52:13.007Z,62.47
2022-10-05T11:55:15.929Z,62.90
2022-10-05T11:58:37.215Z,61.40
2022-10-05T12:02:08.061Z,62.04
2022-10-05T12:05:24.958Z,61.70
2022-10-05T12:08:46.094Z,60.14
2022-10-05T12:12:07.741Z,60.80
2022-10-05T12:15:31.839Z,57.57
2022-10-05T12:18:39.228Z,60.10
2022-10-05T12:21:52.376Z,61.35
2022-10-05T12:25:05.258Z,60.56
2022-10-05T12:28:15.615Z,58.02
2022-10-05T12:31:29.130Z,60.78
2022-10-05T12:35:03.297Z,61.44
2022-10-05T12:38:44.269Z,62.57
2022-10-05T12:42:06.539Z,61.75
2022-10-05T12:45:43.664Z,62.83
2022-10-05T12:49:19.409Z,63.93
2022-10-05T12:52:44.961Z,64.63
2022-10-05T12:56:09.029Z,65.07
2022-10-05T12:59:41.152Z,66.41
2022-10-05T13:02:56.326Z,66.47
2022-10-05T13:06:11.021Z,65.12
2022-10-05T13:09:42.393Z,64.59
2022-10-05T13:12:51.601Z,64.60
2022-10-05T13:16:15.363Z,63.90
2022-10-05T13:19:30.538Z,65.39
2022-10-05T13:23:02.266Z,63.69
2022-10-05T13:26:19.249Z,64.70
2022-10-05T13:29:27.842Z,62.44
2022-10-05T13:32:36.137Z,63.40
2022-10-05T13:35:43.952Z,62.52
2022-10-05T13:38:53.594Z,64.47
2022-10-05T13:42:06.830Z,62.85
2022-10-05T13:45:24.024Z,62.92
2022-10-05T13:49:10.015Z,63.35
2022-10-05T13:52:32.951Z,63.80
2022-10-05T13:56:00.399Z,63.33
2022-10-05T13:59:19.037Z,64.07
2022-10-05T14:02:28.781Z,62.60
2022-10-05T14:05:32.120Z,62.66
2022-10-05T14:08:53.491Z,64.33
2022-10-05T14:12:05.487Z,63.76
2022-10-05T14:15:31.412Z,63.06
2022-10-05T14:18:37.792Z,63.13
2022-10-05T14:22:01.198Z,65.04
2022-10-05T14:25:10.159Z,66.56
2022-10-05T14:28:12.915Z,65.42
2022-10-05T14:31:31.712Z,68.55
2022-10-05T14:34:39.331Z,65.72
2022-10-05T14:37:48.226Z,65.20
2022-10-05T14:41:16.456Z,64.92
2022-10-05T14:44:25.839Z,67.44
2022-10-05T14:47:31.562Z,66.17
2022-10-05T14:50:48.110Z,70.72
2022-10-05T14:54:10.558Z,70.02
2022-10-05T14:57:35.577Z,68.25
2022-10-05T15:00:57.017Z,69.77
2022-10-05T15:04:31.963Z,71.04
2022-10-05T15:07:41.119Z,71.14
2022-10-05T15:10:47.358Z,71.51
2022-10-05T15:13:50.462Z,70.45
2022-10-05T15:16:56.933Z,71.31
2022-10-05T15:20:18.493Z,72.15
2022-10-05T15:23:30.943Z,72.37
2022-10-05T15:26:56.501Z,73.76
2022-10-05T15:30:11.747Z,73.86
2022-10-05T15:33:37.241Z,74.63
2022-10-05T15:36:48.101Z,75.01
2022-10-05T15:39:59.743Z,75.56
2022-10-05T15:43:10.608Z,76.46
2022-10-05T15:46:23.382Z,77.59
2022-10-05T15:49:29.422Z,78.41
2022-10-05T15:52:46.282Z,78.79
2022-10-05T15:55:55.013Z,79.51
2022-10-05T15:59:18.557Z,80.79
2022-10-05T16:02:29.440Z,81.83
2022-10-05T16:06:26.515Z,81.03
2022-10-05T16:09:38.479Z,81.98
2022-10-05T16:12:48.954Z,82.79
2022-10-05T16:16:12.054Z,85.75
2022-10-05T16:19:25.212Z,85.87
2022-10-05T16:23:03.413Z,86.81
2022-10-05T16:26:24.430Z,86.21
2022-10-05T16:29:48.698Z,86.46
2022-10-05T16:33:10.205Z,89.22
2022-10-05T16:36:33.102Z,89.39
2022-10-05T16:40:03.283Z,90.74
2022-10-05T16:43:08.785Z,91.42
2022-10-05T16:46:37.296Z,91.78
2022-10-05T16:49:56.358Z,91.70
2022-10-05T16:53:04.826Z,92.22
2022-10-05T16:56:14.294Z,92.30
2022-10-05T16:59:42.965Z,91.71
2022-10-05T17:03:34.575Z,94.08
2022-10-05T17:06:54.103Z,94.67
2022-10-05T17:10:18.883Z,95.74
2022-10-05T17:13:43.594Z,96.73
2022-10-05T17:17:20.714Z,96.81
2022-10-05T17:20:42.457Z,97.69
2022-10-05T17:24:04.023Z,97.97
2022-10-05T17:27:31.381Z,98.24
2022-10-05T17:30:54.506Z,98.64
2022-10-05T17:34:06.902Z,98.31
2022-10-05T17:37:32.038Z,98.31
2022-10-05T17:40:38.460Z,98.66
2022-10-05T17:44:01.569Z,97.46
2022-10-05T17:47:08.364Z,96.77
2022-10-05T17:50:31.109Z,100.00
2022-10-05T17:53:52.611Z,99.98
2022-10-05T17:56:58.304Z,100.00
2022-10-05T18:00:05.418Z,100.00
2022-10-05T18:03:47.618Z,100.00
2022-10-05T19:42:49.634Z,100.00
2022-10-05T19:46:14.081Z,100.00
2022-10-05T19:49:47.839Z,100.00
2022-10-05T19:53:11.110Z,100.00
2022-10-05T19:56:22.545Z,100.00
2022-10-05T19:59:28.157Z,100.00
2022-10-05T20:02:31.044Z,100.00
2022-10-05T20:05:35.197Z,100.00
2022-10-05T20:08:40.141Z,100.00
2022-10-05T20:11:50.810Z,100.00
2022-10-05T20:15:26.820Z,100.00
2022-10-05T20:19:06.018Z,100.00
2022-10-05T20:22:32.990Z,100.00
2022-10-05T20:25:37.196Z,100.00
2022-10-05T20:28:40.013Z,100.00
2022-10-05T20:31:45.717Z,100.00
2022-10-05T20:34:49.416Z,100.00
2022-10-05T20:37:52.346Z,100.00
2022-10-05T20:40:54.924Z,100.00
2022-10-05T20:43:57.802Z,100.00
2022-10-05T20:47:01.490Z,100.00
2022-10-05T20:50:10.143Z,100.00
2022-10-05T20:53:13.180Z,100.00
2022-10-05T20:56:16.197Z,100.00
2022-10-05T20:59:18.995Z,100.00
2022-10-05T21:02:21.926Z,100.00
2022-10-05T21:05:24.516Z,100.00
2022-10-05T21:08:27.989Z,100.00
2022-10-05T21:11:30.845Z,100.00
2022-10-05T21:14:36.220Z,100.00
2022-10-05T21:17:38.872Z,100.00
2022-10-05T21:20:50.058Z,100.00
2022-10-05T21:23:52.719Z,100.00
2022-10-05T21:26:57.595Z,100.00
2022-10-05T21:30:00.812Z,100.00
2022-10-05T21:33:03.675Z,100.00
2022-10-05T21:36:06.293Z,100.00
2022-10-05T21:39:11.941Z,100.00
2022-10-05T21:42:14.558Z,100.00
2022-10-05T21:45:17.375Z,100.00
2022-10-05T21:48:20.414Z,100.00
2022-10-05T21:51:25.083Z,100.00
2022-10-05T21:54:28.676Z,100.00
2022-10-05T21:57:32.386Z,100.00
2022-10-05T22:00:35.087Z,100.00
2022-10-05T22:03:38.290Z,100.00
2022-10-05T22:06:41.243Z,100.00
2022-10-05T22:09:48.338Z,100.00
2022-10-05T22:12:51.215Z,100.00
2022-10-05T22:15:56.756Z,100.00
2022-10-05T22:19:02.629Z,100.00
2022-10-05T22:22:08.660Z,100.00
2022-10-05T22:25:14.802Z,100.00
2022-10-05T22:28:17.801Z,100.00
2022-10-05T22:31:20.735Z,100.00
2022-10-05T22:34:23.715Z,100.00
2022-10-05T22:37:26.309Z,100.00
2022-10-05T22:40:30.063Z,100.00
2022-10-05T22:43:32.582Z,100.00
2022-10-05T22:46:36.046Z,100.00
2022-10-05T22:49:38.674Z,100.00
2022-10-05T22:52:42.574Z,100.00
2022-10-05T22:55:45.291Z,100.00
2022-10-05T22:58:48.448Z,100.00
2022-10-05T23:01:51.063Z,100.00
2022-10-05T23:04:54.137Z,100.00
2022-10-05T23:07:56.701Z,100.00
2022-10-05T23:11:07.632Z,100.00
2022-10-05T23:14:10.225Z,100.00
2022-10-05T23:17:13.077Z,100.00
2022-10-05T23:20:15.670Z,100.00
2022-10-05T23:23:19.216Z,100.00
2022-10-05T23:26:24.002Z,100.00
2022-10-05T23:29:28.665Z,100.00
2022-10-05T23:32:31.377Z,100.00
2022-10-05T23:35:34.242Z,100.00
2022-10-05T23:38:36.880Z,100.00
2022-10-05T23:41:40.533Z,100.00
2022-10-05T23:44:43.138Z,100.00
2022-10-05T23:47:46.229Z,100.00
2022-10-05T23:50:49.840Z,100.00
2022-10-05T23:53:55.310Z,100.00
2022-10-05T23:56:57.909Z,100.00
